sensor_id;sensor_type;location;lat;lon;timestamp;pressure;altitude;pressure_sealevel;temperature;humidity
25084;BME280;13075;55.682;37.564;2022-09-01T00:02:23;98836.94;;;14.36;100.00
25084;BME280;13075;55.682;37.564;2022-09-01T00:04:52;98826.06;;;14.43;100.00
25084;BME280;13075;55.682;37.564;2022-09-01T00:07:24;98841.75;;;14.34;100.00
25084;BME280;13075;55.682;37.564;2022-09-01T00:09:49;98837.28;;;14.11;100.00
25084;BME280;13075;55.682;37.564;2022-09-01T00:12:16;98839.88;;;14.06;100.00
25084;BME280;13075;55.682;37.564;2022-09-01T00:14:42;98842.28;;;14.19;100.00
25084;BME280;13075;55.682;37.564;2022-09-01T00:17:10;98829.78;;;14.13;100.00
25084;BME280;13075;55.682;37.564;2022-09-01T00:19:36;98835.97;;;14.14;100.00
25084;BME280;13075;55.682;37.564;2022-09-01T00:22:03;98839.25;;;14.04;100.00
25084;BME280;13075;55.682;37.564;2022-09-01T00:24:28;98837.97;;;14.07;100.00
25084;BME280;13075;55.682;37.564;2022-09-01T00:26:55;98838.31;;;14.10;100.00
25084;BME280;13075;55.682;37.564;2022-09-01T00:29:22;98854.00;;;14.02;100.00
25084;BME280;13075;55.682;37.564;2022-09-01T00:31:48;98839.63;;;14.08;100.00
25084;BME280;13075;55.682;37.564;2022-09-01T00:34:14;98844.44;;;14.06;100.00
25084;BME280;13075;55.682;37.564;2022-09-01T00:36:40;98847.22;;;14.11;100.00
25084;BME280;13075;55.682;37.564;2022-09-01T00:39:07;98842.06;;;14.09;100.00
25084;BME280;13075;55.682;37.564;2022-09-01T00:41:36;98844.25;;;14.12;100.00
25084;BME280;13075;55.682;37.564;2022-09-01T00:44:06;98843.25;;;14.02;100.00
25084;BME280;13075;55.682;37.564;2022-09-01T00:46:38;98844.66;;;14.04;100.00
25084;BME280;13075;55.682;37.564;2022-09-01T00:49:29;98844.06;;;14.02;100.00
25084;BME280;13075;55.682;37.564;2022-09-01T00:52:00;98844.22;;;13.96;100.00
25084;BME280;13075;55.682;37.564;2022-09-01T00:54:31;98840.34;;;14.03;100.00
25084;BME280;13075;55.682;37.564;2022-09-01T00:56:59;98834.88;;;13.98;100.00
25084;BME280;13075;55.682;37.564;2022-09-01T00:59:26;98856.03;;;13.95;100.00
25084;BME280;13075;55.682;37.564;2022-09-01T01:01:53;98858.88;;;13.88;100.00
25084;BME280;13075;55.682;37.564;2022-09-01T01:04:19;98858.34;;;13.91;100.00
25084;BME280;13075;55.682;37.564;2022-09-01T01:06:48;98860.34;;;13.96;100.00
25084;BME280;13075;55.682;37.564;2022-09-01T01:09:24;98863.75;;;13.91;100.00
25084;BME280;13075;55.682;37.564;2022-09-01T01:11:51;98853.81;;;13.92;100.00
25084;BME280;13075;55.682;37.564;2022-09-01T01:14:16;98856.97;;;13.89;100.00
25084;BME280;13075;55.682;37.564;2022-09-01T01:16:46;98849.88;;;13.83;100.00
25084;BME280;13075;55.682;37.564;2022-09-01T01:19:36;98851.84;;;13.75;100.00
25084;BME280;13075;55.682;37.564;2022-09-01T01:25:35;98846.16;;;13.72;100.00
25084;BME280;13075;55.682;37.564;2022-09-01T01:28:10;98848.50;;;13.68;100.00
25084;BME280;13075;55.682;37.564;2022-09-01T01:30:38;98846.25;;;13.65;100.00
25084;BME280;13075;55.682;37.564;2022-09-01T01:33:05;98845.22;;;13.66;100.00
25084;BME280;13075;55.682;37.564;2022-09-01T01:35:31;98845.69;;;13.63;100.00
25084;BME280;13075;55.682;37.564;2022-09-01T01:38:00;98842.69;;;13.60;100.00
25084;BME280;13075;55.682;37.564;2022-09-01T01:40:27;98841.75;;;13.43;100.00
25084;BME280;13075;55.682;37.564;2022-09-01T01:42:54;98839.06;;;13.43;100.00
25084;BME280;13075;55.682;37.564;2022-09-01T01:45:24;98841.28;;;13.46;100.00
25084;BME280;13075;55.682;37.564;2022-09-01T01:47:50;98840.00;;;13.48;100.00
25084;BME280;13075;55.682;37.564;2022-09-01T01:50:28;98838.03;;;13.44;100.00
25084;BME280;13075;55.682;37.564;2022-09-01T01:52:58;98837.66;;;13.40;100.00
25084;BME280;13075;55.682;37.564;2022-09-01T01:55:26;98833.47;;;13.44;100.00
25084;BME280;13075;55.682;37.564;2022-09-01T01:57:58;98836.38;;;13.43;100.00
25084;BME280;13075;55.682;37.564;2022-09-01T02:00:27;98848.53;;;13.34;100.00
25084;BME280;13075;55.682;37.564;2022-09-01T02:02:54;98840.13;;;13.42;100.00
25084;BME280;13075;55.682;37.564;2022-09-01T02:05:23;98840.50;;;13.34;100.00
25084;BME280;13075;55.682;37.564;2022-09-01T02:08:03;98840.34;;;13.40;100.00
25084;BME280;13075;55.682;37.564;2022-09-01T02:10:35;98841.88;;;13.36;100.00
25084;BME280;13075;55.682;37.564;2022-09-01T02:13:04;98846.78;;;13.39;100.00
25084;BME280;13075;55.682;37.564;2022-09-01T02:15:35;98847.25;;;13.36;100.00
25084;BME280;13075;55.682;37.564;2022-09-01T02:18:03;98837.69;;;13.29;100.00
25084;BME280;13075;55.682;37.564;2022-09-01T02:20:29;98849.59;;;13.21;100.00
25084;BME280;13075;55.682;37.564;2022-09-01T02:22:58;98843.63;;;13.07;100.00
25084;BME280;13075;55.682;37.564;2022-09-01T02:25:32;98845.94;;;12.92;100.00
25084;BME280;13075;55.682;37.564;2022-09-01T02:27:59;98846.88;;;12.98;100.00
25084;BME280;13075;55.682;37.564;2022-09-01T02:30:27;98847.78;;;12.92;100.00
25084;BME280;13075;55.682;37.564;2022-09-01T02:32:56;98848.72;;;12.86;100.00
25084;BME280;13075;55.682;37.564;2022-09-01T02:35:23;98848.59;;;12.81;100.00
25084;BME280;13075;55.682;37.564;2022-09-01T02:37:51;98848.13;;;12.72;100.00
25084;BME280;13075;55.682;37.564;2022-09-01T02:40:20;98845.69;;;12.82;100.00
25084;BME280;13075;55.682;37.564;2022-09-01T02:42:46;98856.06;;;12.79;100.00
25084;BME280;13075;55.682;37.564;2022-09-01T02:45:12;98842.75;;;12.84;100.00
25084;BME280;13075;55.682;37.564;2022-09-01T02:47:40;98849.28;;;12.88;100.00
25084;BME280;13075;55.682;37.564;2022-09-01T02:50:12;98844.16;;;12.75;100.00
25084;BME280;13075;55.682;37.564;2022-09-01T02:52:42;98841.47;;;12.75;100.00
25084;BME280;13075;55.682;37.564;2022-09-01T02:55:08;98845.66;;;12.71;100.00
25084;BME280;13075;55.682;37.564;2022-09-01T02:57:34;98849.88;;;12.78;100.00
25084;BME280;13075;55.682;37.564;2022-09-01T03:00:01;98841.00;;;12.78;100.00
25084;BME280;13075;55.682;37.564;2022-09-01T03:02:29;98837.41;;;12.84;100.00
25084;BME280;13075;55.682;37.564;2022-09-01T03:04:55;98846.03;;;12.86;100.00
25084;BME280;13075;55.682;37.564;2022-09-01T03:07:21;98841.94;;;12.83;100.00
25084;BME280;13075;55.682;37.564;2022-09-01T03:09:49;98838.56;;;12.88;100.00
25084;BME280;13075;55.682;37.564;2022-09-01T03:12:18;98847.22;;;12.90;100.00
25084;BME280;13075;55.682;37.564;2022-09-01T03:14:44;98843.00;;;12.94;100.00
25084;BME280;13075;55.682;37.564;2022-09-01T03:17:10;98844.06;;;12.93;100.00
25084;BME280;13075;55.682;37.564;2022-09-01T03:19:36;98839.03;;;12.96;100.00
25084;BME280;13075;55.682;37.564;2022-09-01T03:22:06;98836.97;;;13.10;100.00
25084;BME280;13075;55.682;37.564;2022-09-01T03:24:32;98833.94;;;13.18;100.00
25084;BME280;13075;55.682;37.564;2022-09-01T03:26:57;98825.06;;;13.18;100.00
25084;BME280;13075;55.682;37.564;2022-09-01T03:29:26;98833.09;;;13.29;100.00
25084;BME280;13075;55.682;37.564;2022-09-01T03:31:52;98842.69;;;13.25;100.00
25084;BME280;13075;55.682;37.564;2022-09-01T03:34:18;98843.28;;;13.16;100.00
25084;BME280;13075;55.682;37.564;2022-09-01T03:36:49;98845.63;;;13.12;100.00
25084;BME280;13075;55.682;37.564;2022-09-01T03:39:21;98842.81;;;13.30;100.00
25084;BME280;13075;55.682;37.564;2022-09-01T03:41:47;98848.53;;;13.22;100.00
25084;BME280;13075;55.682;37.564;2022-09-01T03:44:13;98846.91;;;13.33;100.00
25084;BME280;13075;55.682;37.564;2022-09-01T03:46:43;98852.63;;;13.36;100.00
25084;BME280;13075;55.682;37.564;2022-09-01T03:49:09;98851.34;;;13.16;100.00
25084;BME280;13075;55.682;37.564;2022-09-01T03:51:41;98854.16;;;13.21;100.00
25084;BME280;13075;55.682;37.564;2022-09-01T03:54:08;98851.34;;;13.27;100.00
25084;BME280;13075;55.682;37.564;2022-09-01T03:56:34;98846.75;;;13.51;100.00
25084;BME280;13075;55.682;37.564;2022-09-01T03:59:00;98849.34;;;13.57;100.00
25084;BME280;13075;55.682;37.564;2022-09-01T04:01:27;98857.91;;;13.31;100.00
25084;BME280;13075;55.682;37.564;2022-09-01T04:03:54;98847.72;;;13.33;100.00
25084;BME280;13075;55.682;37.564;2022-09-01T04:06:24;98846.88;;;13.56;100.00
25084;BME280;13075;55.682;37.564;2022-09-01T04:08:51;98842.56;;;13.55;100.00
25084;BME280;13075;55.682;37.564;2022-09-01T04:11:27;98831.69;;;13.50;100.00
25084;BME280;13075;55.682;37.564;2022-09-01T04:13:53;98838.44;;;13.64;100.00
25084;BME280;13075;55.682;37.564;2022-09-01T04:16:24;98834.31;;;13.85;100.00
25084;BME280;13075;55.682;37.564;2022-09-01T04:19:09;98836.19;;;13.84;100.00
25084;BME280;13075;55.682;37.564;2022-09-01T04:21:47;98833.03;;;13.75;100.00
25084;BME280;13075;55.682;37.564;2022-09-01T04:24:16;98827.69;;;13.64;100.00
25084;BME280;13075;55.682;37.564;2022-09-01T04:26:45;98840.69;;;13.67;100.00
25084;BME280;13075;55.682;37.564;2022-09-01T04:29:13;98836.69;;;13.69;100.00
25084;BME280;13075;55.682;37.564;2022-09-01T04:31:39;98844.75;;;13.58;100.00
25084;BME280;13075;55.682;37.564;2022-09-01T04:34:07;98830.25;;;13.70;100.00
25084;BME280;13075;55.682;37.564;2022-09-01T04:36:41;98840.88;;;13.65;100.00
25084;BME280;13075;55.682;37.564;2022-09-01T04:39:08;98844.75;;;13.69;100.00
25084;BME280;13075;55.682;37.564;2022-09-01T04:41:38;98850.97;;;13.70;100.00
25084;BME280;13075;55.682;37.564;2022-09-01T04:44:06;98847.44;;;13.69;100.00
25084;BME280;13075;55.682;37.564;2022-09-01T04:46:40;98859.13;;;13.63;100.00
25084;BME280;13075;55.682;37.564;2022-09-01T04:49:12;98842.28;;;13.80;100.00
25084;BME280;13075;55.682;37.564;2022-09-01T04:51:50;98856.81;;;13.67;100.00
25084;BME280;13075;55.682;37.564;2022-09-01T04:54:16;98855.63;;;13.74;100.00
25084;BME280;13075;55.682;37.564;2022-09-01T04:56:46;98850.97;;;13.70;100.00
25084;BME280;13075;55.682;37.564;2022-09-01T04:59:16;98854.31;;;13.77;100.00
25084;BME280;13075;55.682;37.564;2022-09-01T05:01:46;98849.88;;;13.83;100.00
25084;BME280;13075;55.682;37.564;2022-09-01T05:04:20;98850.53;;;13.90;100.00
25084;BME280;13075;55.682;37.564;2022-09-01T05:06:49;98850.19;;;13.86;100.00
25084;BME280;13075;55.682;37.564;2022-09-01T05:09:18;98849.31;;;13.81;100.00
25084;BME280;13075;55.682;37.564;2022-09-01T05:12:05;98861.56;;;13.88;100.00
25084;BME280;13075;55.682;37.564;2022-09-01T05:14:41;98854.97;;;13.96;100.00
25084;BME280;13075;55.682;37.564;2022-09-01T05:17:10;98843.25;;;14.02;100.00
25084;BME280;13075;55.682;37.564;2022-09-01T05:19:38;98848.34;;;14.15;100.00
25084;BME280;13075;55.682;37.564;2022-09-01T05:22:06;98846.75;;;14.14;100.00
25084;BME280;13075;55.682;37.564;2022-09-01T05:24:34;98849.75;;;14.17;100.00
25084;BME280;13075;55.682;37.564;2022-09-01T05:27:04;98858.63;;;14.18;100.00
25084;BME280;13075;55.682;37.564;2022-09-01T05:29:32;98848.50;;;14.08;100.00
25084;BME280;13075;55.682;37.564;2022-09-01T05:32:05;98860.69;;;14.27;100.00
25084;BME280;13075;55.682;37.564;2022-09-01T05:34:36;98856.13;;;14.28;100.00
25084;BME280;13075;55.682;37.564;2022-09-01T05:37:05;98854.75;;;14.37;100.00
25084;BME280;13075;55.682;37.564;2022-09-01T05:39:35;98862.72;;;14.32;100.00
25084;BME280;13075;55.682;37.564;2022-09-01T05:42:03;98852.44;;;14.17;100.00
25084;BME280;13075;55.682;37.564;2022-09-01T05:44:31;98856.13;;;14.28;100.00
25084;BME280;13075;55.682;37.564;2022-09-01T05:46:58;98848.75;;;14.35;100.00
25084;BME280;13075;55.682;37.564;2022-09-01T05:49:25;98861.09;;;14.19;100.00
25084;BME280;13075;55.682;37.564;2022-09-01T05:51:54;98854.44;;;14.22;100.00
25084;BME280;13075;55.682;37.564;2022-09-01T05:54:25;98864.69;;;14.25;100.00
25084;BME280;13075;55.682;37.564;2022-09-01T05:56:55;98850.97;;;14.38;100.00
25084;BME280;13075;55.682;37.564;2022-09-01T05:59:26;98856.53;;;14.31;100.00
25084;BME280;13075;55.682;37.564;2022-09-01T06:02:08;98861.66;;;14.33;100.00
25084;BME280;13075;55.682;37.564;2022-09-01T06:04:36;98862.63;;;14.15;100.00
25084;BME280;13075;55.682;37.564;2022-09-01T06:07:10;98852.13;;;14.14;100.00
25084;BME280;13075;55.682;37.564;2022-09-01T06:09:44;98856.69;;;14.13;100.00
25084;BME280;13075;55.682;37.564;2022-09-01T06:12:10;98852.03;;;14.09;100.00
25084;BME280;13075;55.682;37.564;2022-09-01T06:14:46;98862.00;;;14.25;100.00
25084;BME280;13075;55.682;37.564;2022-09-01T06:17:15;98856.41;;;14.15;100.00
25084;BME280;13075;55.682;37.564;2022-09-01T06:19:43;98855.59;;;14.14;100.00
25084;BME280;13075;55.682;37.564;2022-09-01T06:22:09;98858.56;;;14.41;100.00
25084;BME280;13075;55.682;37.564;2022-09-01T06:24:36;98855.25;;;14.51;100.00
25084;BME280;13075;55.682;37.564;2022-09-01T06:27:06;98851.50;;;14.52;100.00
25084;BME280;13075;55.682;37.564;2022-09-01T06:29:35;98860.72;;;14.56;100.00
25084;BME280;13075;55.682;37.564;2022-09-01T06:32:05;98852.31;;;14.52;100.00
25084;BME280;13075;55.682;37.564;2022-09-01T06:34:35;98858.78;;;14.68;100.00
25084;BME280;13075;55.682;37.564;2022-09-01T06:37:02;98859.84;;;14.67;100.00
25084;BME280;13075;55.682;37.564;2022-09-01T06:39:27;98851.53;;;14.68;100.00
25084;BME280;13075;55.682;37.564;2022-09-01T06:41:53;98850.72;;;14.68;100.00
25084;BME280;13075;55.682;37.564;2022-09-01T06:44:28;98857.53;;;14.59;100.00
25084;BME280;13075;55.682;37.564;2022-09-01T06:47:01;98850.19;;;14.54;100.00
25084;BME280;13075;55.682;37.564;2022-09-01T06:49:27;98852.22;;;14.47;100.00
25084;BME280;13075;55.682;37.564;2022-09-01T06:52:02;98853.53;;;14.61;100.00
25084;BME280;13075;55.682;37.564;2022-09-01T06:54:30;98861.72;;;14.66;100.00
25084;BME280;13075;55.682;37.564;2022-09-01T06:57:00;98864.97;;;14.52;100.00
25084;BME280;13075;55.682;37.564;2022-09-01T06:59:29;98861.22;;;14.53;100.00
25084;BME280;13075;55.682;37.564;2022-09-01T07:02:01;98870.00;;;14.48;100.00
25084;BME280;13075;55.682;37.564;2022-09-01T07:04:48;98865.53;;;14.54;100.00
25084;BME280;13075;55.682;37.564;2022-09-01T07:07:14;98870.50;;;14.45;100.00
25084;BME280;13075;55.682;37.564;2022-09-01T07:09:58;98871.28;;;14.46;100.00
25084;BME280;13075;55.682;37.564;2022-09-01T07:12:33;98864.78;;;14.42;100.00
25084;BME280;13075;55.682;37.564;2022-09-01T07:15:00;98873.75;;;14.47;100.00
25084;BME280;13075;55.682;37.564;2022-09-01T07:17:25;98867.09;;;14.50;100.00
25084;BME280;13075;55.682;37.564;2022-09-01T07:19:52;98877.28;;;14.48;100.00
25084;BME280;13075;55.682;37.564;2022-09-01T07:22:19;98876.97;;;14.32;100.00
25084;BME280;13075;55.682;37.564;2022-09-01T07:24:47;98875.91;;;14.33;100.00
25084;BME280;13075;55.682;37.564;2022-09-01T07:27:28;98878.56;;;14.45;100.00
25084;BME280;13075;55.682;37.564;2022-09-01T07:29:54;98875.97;;;14.50;100.00
25084;BME280;13075;55.682;37.564;2022-09-01T07:32:22;98878.03;;;14.31;100.00
25084;BME280;13075;55.682;37.564;2022-09-01T07:34:48;98869.81;;;14.38;100.00
25084;BME280;13075;55.682;37.564;2022-09-01T07:37:14;98875.63;;;14.47;100.00
25084;BME280;13075;55.682;37.564;2022-09-01T07:39:40;98871.28;;;14.46;100.00
25084;BME280;13075;55.682;37.564;2022-09-01T07:42:30;98874.69;;;14.69;100.00
25084;BME280;13075;55.682;37.564;2022-09-01T07:45:15;98870.16;;;15.03;100.00
25084;BME280;13075;55.682;37.564;2022-09-01T07:47:58;98877.66;;;15.34;100.00
25084;BME280;13075;55.682;37.564;2022-09-01T07:50:33;98876.66;;;15.40;100.00
25084;BME280;13075;55.682;37.564;2022-09-01T07:53:00;98877.00;;;15.11;100.00
25084;BME280;13075;55.682;37.564;2022-09-01T07:55:26;98881.41;;;15.33;100.00
25084;BME280;13075;55.682;37.564;2022-09-01T07:57:54;98864.34;;;15.28;100.00
25084;BME280;13075;55.682;37.564;2022-09-01T08:00:20;98868.50;;;15.35;100.00
25084;BME280;13075;55.682;37.564;2022-09-01T08:02:52;98875.28;;;15.54;100.00
25084;BME280;13075;55.682;37.564;2022-09-01T08:05:18;98868.06;;;15.43;100.00
25084;BME280;13075;55.682;37.564;2022-09-01T08:07:50;98875.13;;;15.61;100.00
25084;BME280;13075;55.682;37.564;2022-09-01T08:10:16;98875.06;;;15.78;100.00
25084;BME280;13075;55.682;37.564;2022-09-01T08:12:42;98865.56;;;15.75;100.00
25084;BME280;13075;55.682;37.564;2022-09-01T08:15:09;98862.13;;;16.01;100.00
25084;BME280;13075;55.682;37.564;2022-09-01T08:17:38;98861.59;;;16.74;100.00
25084;BME280;13075;55.682;37.564;2022-09-01T08:20:10;98860.00;;;16.78;98.59
25084;BME280;13075;55.682;37.564;2022-09-01T08:23:03;98859.44;;;16.50;99.65
25084;BME280;13075;55.682;37.564;2022-09-01T08:25:34;98859.94;;;16.20;100.00
25084;BME280;13075;55.682;37.564;2022-09-01T08:28:01;98864.94;;;15.90;100.00
25084;BME280;13075;55.682;37.564;2022-09-01T08:30:28;98868.91;;;15.82;100.00
25084;BME280;13075;55.682;37.564;2022-09-01T08:32:54;98872.09;;;16.01;100.00
25084;BME280;13075;55.682;37.564;2022-09-01T08:35:21;98879.81;;;16.14;100.00
25084;BME280;13075;55.682;37.564;2022-09-01T08:37:46;98877.00;;;16.04;100.00
25084;BME280;13075;55.682;37.564;2022-09-01T08:40:15;98870.34;;;15.90;100.00
25084;BME280;13075;55.682;37.564;2022-09-01T08:50:43;98881.97;;;15.35;100.00
25084;BME280;13075;55.682;37.564;2022-09-01T08:53:46;98888.13;;;15.69;100.00
25084;BME280;13075;55.682;37.564;2022-09-01T08:56:17;98880.47;;;15.99;100.00
25084;BME280;13075;55.682;37.564;2022-09-01T08:58:44;98895.25;;;16.18;100.00
25084;BME280;13075;55.682;37.564;2022-09-01T09:15:13;98897.34;;;16.11;100.00
25084;BME280;13075;55.682;37.564;2022-09-01T09:17:46;98899.66;;;16.03;100.00
25084;BME280;13075;55.682;37.564;2022-09-01T09:20:15;98909.00;;;15.57;100.00
25084;BME280;13075;55.682;37.564;2022-09-01T09:22:41;98915.78;;;15.43;100.00
25084;BME280;13075;55.682;37.564;2022-09-01T09:25:11;98904.28;;;15.47;100.00
25084;BME280;13075;55.682;37.564;2022-09-01T09:27:41;98913.97;;;15.65;100.00
25084;BME280;13075;55.682;37.564;2022-09-01T09:35:26;98915.13;;;15.36;100.00
25084;BME280;13075;55.682;37.564;2022-09-01T09:37:53;98922.97;;;15.37;100.00
25084;BME280;13075;55.682;37.564;2022-09-01T09:40:24;98924.66;;;15.43;100.00
25084;BME280;13075;55.682;37.564;2022-09-01T09:47:52;98916.31;;;15.95;100.00
25084;BME280;13075;55.682;37.564;2022-09-01T09:52:48;98918.94;;;16.11;100.00
25084;BME280;13075;55.682;37.564;2022-09-01T09:55:29;98932.69;;;16.10;98.68
25084;BME280;13075;55.682;37.564;2022-09-01T09:57:58;98941.16;;;15.80;100.00
25084;BME280;13075;55.682;37.564;2022-09-01T10:00:33;98928.13;;;15.55;100.00
25084;BME280;13075;55.682;37.564;2022-09-01T10:03:00;98933.53;;;15.55;100.00
25084;BME280;13075;55.682;37.564;2022-09-01T10:05:47;98942.41;;;15.73;100.00
25084;BME280;13075;55.682;37.564;2022-09-01T10:08:37;98937.19;;;15.49;100.00
25084;BME280;13075;55.682;37.564;2022-09-01T10:11:10;98940.88;;;15.60;100.00
25084;BME280;13075;55.682;37.564;2022-09-01T10:13:38;98939.75;;;15.56;100.00
25084;BME280;13075;55.682;37.564;2022-09-01T10:16:08;98945.06;;;15.51;100.00
25084;BME280;13075;55.682;37.564;2022-09-01T10:18:40;98947.75;;;15.51;100.00
25084;BME280;13075;55.682;37.564;2022-09-01T10:21:22;98947.31;;;15.42;100.00
25084;BME280;13075;55.682;37.564;2022-09-01T10:23:50;98954.50;;;15.37;100.00
25084;BME280;13075;55.682;37.564;2022-09-01T10:26:20;98951.09;;;15.58;100.00
25084;BME280;13075;55.682;37.564;2022-09-01T10:28:56;98947.56;;;15.57;100.00
25084;BME280;13075;55.682;37.564;2022-09-01T10:31:27;98955.56;;;15.69;100.00
25084;BME280;13075;55.682;37.564;2022-09-01T10:33:54;98955.31;;;15.71;100.00
25084;BME280;13075;55.682;37.564;2022-09-01T10:36:20;98954.09;;;15.78;100.00
25084;BME280;13075;55.682;37.564;2022-09-01T10:38:47;98948.69;;;16.16;97.21
25084;BME280;13075;55.682;37.564;2022-09-01T10:44:17;98949.81;;;16.20;92.11
25084;BME280;13075;55.682;37.564;2022-09-01T10:46:45;98947.41;;;16.24;93.66
25084;BME280;13075;55.682;37.564;2022-09-01T10:52:02;98954.13;;;16.21;95.28
25084;BME280;13075;55.682;37.564;2022-09-01T10:54:55;98953.09;;;16.23;87.94
25084;BME280;13075;55.682;37.564;2022-09-01T10:57:47;98952.44;;;16.37;87.89
25084;BME280;13075;55.682;37.564;2022-09-01T11:08:54;98945.22;;;15.99;89.70
25084;BME280;13075;55.682;37.564;2022-09-01T11:11:46;98948.09;;;15.93;90.50
25084;BME280;13075;55.682;37.564;2022-09-01T11:14:24;98960.03;;;15.97;93.61
25084;BME280;13075;55.682;37.564;2022-09-01T11:20:22;98948.59;;;16.11;90.67
25084;BME280;13075;55.682;37.564;2022-09-01T11:23:04;98950.00;;;16.36;86.29
25084;BME280;13075;55.682;37.564;2022-09-01T11:25:37;98947.09;;;16.42;86.37
25084;BME280;13075;55.682;37.564;2022-09-01T11:30:58;98929.88;;;16.70;81.46
25084;BME280;13075;55.682;37.564;2022-09-01T11:36:44;98943.00;;;16.56;77.63
25084;BME280;13075;55.682;37.564;2022-09-01T11:44:22;98946.47;;;16.13;85.18
25084;BME280;13075;55.682;37.564;2022-09-01T11:46:49;98948.41;;;15.96;86.34
25084;BME280;13075;55.682;37.564;2022-09-01T11:49:33;98945.97;;;15.95;86.60
25084;BME280;13075;55.682;37.564;2022-09-01T11:52:00;98941.41;;;16.17;87.27
25084;BME280;13075;55.682;37.564;2022-09-01T11:54:29;98939.38;;;16.29;86.26
25084;BME280;13075;55.682;37.564;2022-09-01T11:57:16;98935.47;;;16.42;86.87
25084;BME280;13075;55.682;37.564;2022-09-01T11:59:42;98937.00;;;16.33;88.45
25084;BME280;13075;55.682;37.564;2022-09-01T12:02:08;98935.63;;;16.30;89.99
25084;BME280;13075;55.682;37.564;2022-09-01T12:04:41;98936.13;;;16.49;87.28
25084;BME280;13075;55.682;37.564;2022-09-01T12:07:10;98932.00;;;16.41;85.06
25084;BME280;13075;55.682;37.564;2022-09-01T12:09:44;98929.78;;;16.38;85.18
25084;BME280;13075;55.682;37.564;2022-09-01T12:12:35;98924.56;;;16.32;82.91
25084;BME280;13075;55.682;37.564;2022-09-01T12:15:22;98925.88;;;16.29;83.45
25084;BME280;13075;55.682;37.564;2022-09-01T12:17:48;98927.28;;;16.53;81.81
25084;BME280;13075;55.682;37.564;2022-09-01T12:20:35;98917.97;;;16.66;78.35
25084;BME280;13075;55.682;37.564;2022-09-01T12:25:53;98927.75;;;16.72;82.44
25084;BME280;13075;55.682;37.564;2022-09-01T12:28:22;98914.84;;;17.06;81.09
25084;BME280;13075;55.682;37.564;2022-09-01T12:30:49;98919.44;;;17.05;79.23
25084;BME280;13075;55.682;37.564;2022-09-01T12:33:17;98911.34;;;17.05;79.04
25084;BME280;13075;55.682;37.564;2022-09-01T12:35:44;98914.84;;;17.42;74.34
25084;BME280;13075;55.682;37.564;2022-09-01T12:40:56;98911.06;;;17.07;72.00
25084;BME280;13075;55.682;37.564;2022-09-01T12:43:32;98907.41;;;16.91;70.48
25084;BME280;13075;55.682;37.564;2022-09-01T12:45:59;98915.06;;;16.72;72.88
25084;BME280;13075;55.682;37.564;2022-09-01T12:48:32;98908.03;;;16.71;71.19
25084;BME280;13075;55.682;37.564;2022-09-01T12:51:00;98914.44;;;16.65;70.03
25084;BME280;13075;55.682;37.564;2022-09-01T12:53:29;98905.75;;;16.58;69.61
25084;BME280;13075;55.682;37.564;2022-09-01T12:55:59;98918.28;;;16.48;68.97
25084;BME280;13075;55.682;37.564;2022-09-01T12:58:27;98914.25;;;16.29;70.35
25084;BME280;13075;55.682;37.564;2022-09-01T13:01:04;98904.72;;;16.64;67.09
25084;BME280;13075;55.682;37.564;2022-09-01T13:03:33;98898.59;;;16.74;67.66
25084;BME280;13075;55.682;37.564;2022-09-01T13:06:00;98897.53;;;16.75;66.23
25084;BME280;13075;55.682;37.564;2022-09-01T13:08:30;98890.81;;;16.77;65.95
25084;BME280;13075;55.682;37.564;2022-09-01T13:11:02;98886.97;;;16.73;66.29
25084;BME280;13075;55.682;37.564;2022-09-01T13:13:28;98881.53;;;16.68;67.78
25084;BME280;13075;55.682;37.564;2022-09-01T13:15:57;98884.88;;;16.80;68.40
25084;BME280;13075;55.682;37.564;2022-09-01T13:18:26;98889.50;;;16.80;69.18
25084;BME280;13075;55.682;37.564;2022-09-01T13:20:53;98885.19;;;16.84;66.80
25084;BME280;13075;55.682;37.564;2022-09-01T13:23:20;98886.88;;;16.63;67.64
25084;BME280;13075;55.682;37.564;2022-09-01T13:25:46;98889.84;;;16.62;68.91
25084;BME280;13075;55.682;37.564;2022-09-01T13:28:13;98893.88;;;16.59;70.61
25084;BME280;13075;55.682;37.564;2022-09-01T13:30:39;98893.78;;;16.54;70.57
25084;BME280;13075;55.682;37.564;2022-09-01T13:33:05;98893.25;;;16.52;70.81
25084;BME280;13075;55.682;37.564;2022-09-01T13:35:31;98896.50;;;16.54;71.51
25084;BME280;13075;55.682;37.564;2022-09-01T13:37:57;98885.50;;;16.39;72.70
25084;BME280;13075;55.682;37.564;2022-09-01T13:40:23;98892.53;;;16.40;74.43
25084;BME280;13075;55.682;37.564;2022-09-01T13:42:51;98885.44;;;16.34;75.42
25084;BME280;13075;55.682;37.564;2022-09-01T13:45:19;98892.50;;;16.57;75.69
25084;BME280;13075;55.682;37.564;2022-09-01T13:47:47;98884.63;;;16.55;76.00
25084;BME280;13075;55.682;37.564;2022-09-01T13:50:15;98882.81;;;16.39;81.35
25084;BME280;13075;55.682;37.564;2022-09-01T13:52:48;98883.56;;;16.35;83.34
25084;BME280;13075;55.682;37.564;2022-09-01T13:55:17;98896.56;;;16.38;84.98
25084;BME280;13075;55.682;37.564;2022-09-01T13:57:43;98890.19;;;16.22;86.93
25084;BME280;13075;55.682;37.564;2022-09-01T14:00:11;98888.84;;;16.03;90.90
25084;BME280;13075;55.682;37.564;2022-09-01T14:02:40;98886.88;;;16.15;90.31
25084;BME280;13075;55.682;37.564;2022-09-01T14:05:08;98887.94;;;16.14;91.70
25084;BME280;13075;55.682;37.564;2022-09-01T14:07:34;98890.56;;;16.09;91.97
25084;BME280;13075;55.682;37.564;2022-09-01T14:09:59;98882.91;;;16.01;93.64
25084;BME280;13075;55.682;37.564;2022-09-01T14:12:25;98906.31;;;15.95;94.55